createdAt,value
2023-02-13T00:00:23.704Z,28.09
2023-02-13T00:02:50.420Z,28.46
2023-02-13T00:05:17.851Z,26.18
2023-02-13T00:07:44.614Z,32.04
2023-02-13T00:10:12.549Z,31.66
2023-02-13T00:12:39.936Z,32.92
2023-02-13T00:15:07.505Z,30.40
2023-02-13T00:17:34.607Z,32.19
2023-02-13T00:20:01.941Z,28.49
2023-02-13T00:22:28.756Z,27.79
2023-02-13T00:24:55.437Z,27.99
2023-02-13T00:27:22.395Z,27.28
2023-02-13T00:29:49.475Z,30.64
2023-02-13T00:32:16.515Z,27.58
2023-02-13T00:34:44.182Z,30.05
2023-02-13T00:37:12.136Z,27.08
2023-02-13T00:39:38.911Z,28.79
2023-02-13T00:42:06.220Z,28.10
2023-02-13T00:44:33.251Z,26.74
2023-02-13T00:47:01.554Z,27.48
2023-02-13T00:49:28.546Z,27.92
2023-02-13T00:51:55.318Z,27.61
2023-02-13T00:54:22.526Z,27.35
2023-02-13T00:56:50.097Z,30.67
2023-02-13T00:59:17.738Z,27.63
2023-02-13T01:01:45.392Z,30.71
2023-02-13T01:04:12.363Z,30.84
2023-02-13T01:06:39.265Z,28.80
2023-02-13T01:09:06.300Z,29.80
2023-02-13T01:11:33.435Z,29.93
2023-02-13T01:14:00.867Z,29.76
2023-02-13T01:16:27.991Z,31.30
2023-02-13T01:18:55.846Z,29.48
2023-02-13T01:21:26.678Z,33.16
2023-02-13T01:23:53.428Z,29.21
2023-02-13T01:26:23.429Z,30.37
2023-02-13T01:28:54.897Z,32.15
2023-02-13T01:31:22.224Z,32.45
2023-02-13T01:33:50.785Z,31.08
2023-02-13T01:36:21.214Z,29.27
2023-02-13T01:38:48.881Z,29.10
2023-02-13T01:41:15.996Z,28.84
2023-02-13T01:44:13.465Z,28.94
2023-02-13T01:46:44.111Z,32.52
2023-02-13T01:49:23.615Z,29.54
2023-02-13T01:51:54.144Z,29.49
2023-02-13T01:54:31.234Z,30.30
2023-02-13T01:57:17.148Z,30.72
2023-02-13T01:59:50.581Z,30.19
2023-02-13T02:02:19.426Z,29.30
2023-02-13T02:04:49.064Z,30.53
2023-02-13T02:07:23.531Z,28.13
2023-02-13T02:09:54.136Z,29.52
2023-02-13T02:12:58.651Z,27.04
2023-02-13T02:15:26.754Z,27.14
2023-02-13T02:17:53.489Z,28.78
2023-02-13T02:20:52.871Z,27.39
2023-02-13T02:23:48.271Z,27.07
2023-02-13T02:26:37.665Z,25.18
2023-02-13T02:29:37.479Z,26.82
2023-02-13T02:32:26.143Z,26.65
2023-02-13T02:35:02.560Z,29.86
2023-02-13T02:38:00.655Z,27.57
2023-02-13T02:40:35.176Z,26.88
2023-02-13T02:43:09.548Z,28.27
2023-02-13T02:45:58.261Z,26.50
2023-02-13T02:48:52.156Z,26.17
2023-02-13T02:51:30.858Z,28.68
2023-02-13T02:54:43.150Z,25.85
2023-02-13T02:57:16.506Z,27.29
2023-02-13T03:00:07.908Z,28.09
2023-02-13T03:02:54.095Z,27.38
2023-02-13T03:06:00.596Z,31.68
2023-02-13T03:08:47.796Z,30.83
2023-02-13T03:11:33.286Z,28.87
2023-02-13T03:14:03.084Z,29.90
2023-02-13T03:16:48.436Z,28.50
2023-02-13T03:20:02.023Z,30.89
2023-02-13T03:22:53.553Z,28.85
2023-02-13T03:25:34.925Z,29.78
2023-02-13T03:28:35.820Z,32.34
2023-02-13T03:31:35.965Z,26.35
2023-02-13T03:34:11.958Z,28.63
2023-02-13T03:37:07.636Z,28.32
2023-02-13T03:39:56.887Z,27.41
2023-02-13T03:42:32.636Z,34.36
2023-02-13T03:45:23.266Z,31.04
2023-02-13T03:47:55.158Z,26.00
2023-02-13T03:50:23.754Z,30.17
2023-02-13T03:52:53.164Z,30.19
2023-02-13T03:55:43.041Z,27.26
2023-02-13T03:58:37.204Z,26.41
2023-02-13T04:01:08.098Z,30.15
2023-02-13T04:04:08.868Z,30.33
2023-02-13T04:06:56.670Z,27.75
2023-02-13T04:09:25.257Z,25.39
2023-02-13T04:12:33.733Z,25.97
2023-02-13T04:15:15.420Z,30.68
2023-02-13T04:17:48.771Z,32.72
2023-02-13T04:20:15.948Z,27.39
2023-02-13T04:22:45.517Z,33.24
2023-02-13T04:25:15.498Z,28.71
2023-02-13T04:27:42.410Z,29.19
2023-02-13T04:30:09.679Z,31.56
2023-02-13T04:32:36.812Z,31.02
2023-02-13T04:35:04.124Z,30.45
2023-02-13T04:37:30.972Z,29.68
2023-02-13T04:39:57.679Z,29.33
2023-02-13T04:42:24.531Z,26.66
2023-02-13T04:44:51.768Z,29.34
2023-02-13T04:47:18.820Z,29.02
2023-02-13T04:49:45.498Z,29.14
2023-02-13T04:52:12.361Z,30.76
2023-02-13T04:54:39.291Z,27.40
2023-02-13T04:57:06.047Z,24.88
2023-02-13T04:59:32.929Z,25.88
2023-02-13T05:01:59.753Z,29.77
2023-02-13T05:04:27.012Z,28.66
2023-02-13T05:06:53.832Z,29.30
2023-02-13T05:09:20.810Z,25.04
2023-02-13T05:11:47.757Z,27.05
2023-02-13T05:14:14.579Z,27.28
2023-02-13T05:16:41.283Z,27.99
2023-02-13T05:19:08.041Z,30.76
2023-02-13T05:21:53.256Z,30.15
2023-02-13T05:24:20.726Z,28.75
2023-02-13T05:26:47.696Z,27.98
2023-02-13T05:29:22.644Z,25.87
2023-02-13T05:31:52.997Z,26.05
2023-02-13T05:34:21.191Z,25.08
2023-02-13T05:36:48.200Z,24.66
2023-02-13T05:39:15.988Z,23.09
2023-02-13T05:41:44.396Z,23.43
2023-02-13T05:44:11.553Z,24.12
2023-02-13T05:46:39.651Z,24.25
2023-02-13T05:49:08.654Z,26.82
2023-02-13T05:51:35.522Z,23.66
2023-02-13T05:54:02.836Z,27.44
2023-02-13T05:56:30.065Z,23.74
2023-02-13T05:58:57.615Z,25.55
2023-02-13T06:01:25.134Z,25.76
2023-02-13T06:03:52.573Z,25.20
2023-02-13T06:06:20.066Z,25.69
2023-02-13T06:08:46.837Z,24.57
2023-02-13T06:11:13.603Z,23.63
2023-02-13T06:13:40.925Z,26.01
2023-02-13T06:16:09.852Z,25.33
2023-02-13T06:18:37.801Z,24.63
2023-02-13T06:21:05.642Z,25.43
2023-02-13T06:23:32.491Z,24.39
2023-02-13T06:26:07.740Z,23.90
2023-02-13T06:28:34.856Z,27.34
2023-02-13T06:31:02.310Z,30.03
2023-02-13T06:33:31.078Z,28.30
2023-02-13T06:35:57.875Z,25.39
2023-02-13T06:38:24.649Z,25.60
2023-02-13T06:40:51.818Z,27.70
2023-02-13T06:43:18.972Z,28.12
2023-02-13T06:45:47.316Z,26.38
2023-02-13T06:48:14.699Z,27.52
2023-02-13T06:50:41.505Z,26.07
2023-02-13T06:53:08.496Z,27.56
2023-02-13T06:55:36.546Z,27.96
2023-02-13T06:58:03.303Z,28.15
2023-02-13T07:00:30.178Z,27.91
2023-02-13T07:03:05.542Z,29.14
2023-02-13T07:05:32.866Z,25.33
2023-02-13T07:07:59.897Z,27.07
2023-02-13T07:10:26.892Z,27.11
2023-02-13T07:13:04.968Z,23.68
2023-02-13T07:15:37.047Z,23.09
2023-02-13T07:18:05.442Z,24.55
2023-02-13T07:20:33.107Z,24.76
2023-02-13T07:23:01.245Z,25.27
2023-02-13T07:25:28.982Z,24.84
2023-02-13T07:27:56.187Z,23.55
2023-02-13T07:30:23.407Z,25.37
2023-02-13T07:32:52.284Z,23.21
2023-02-13T07:35:19.377Z,29.39
2023-02-13T07:37:46.366Z,28.61
2023-02-13T07:40:13.220Z,25.63
2023-02-13T07:42:39.854Z,26.25
2023-02-13T07:45:07.653Z,24.83
2023-02-13T07:47:35.187Z,24.05
2023-02-13T07:50:03.156Z,24.12
2023-02-13T07:52:30.340Z,22.51
2023-02-13T07:54:57.079Z,23.75
2023-02-13T07:57:24.054Z,23.92
2023-02-13T07:59:51.005Z,23.16
2023-02-13T08:02:17.728Z,23.64
2023-02-13T08:04:47.544Z,23.35
2023-02-13T08:07:16.415Z,23.12
2023-02-13T08:10:05.164Z,23.68
2023-02-13T08:12:35.035Z,24.55
2023-02-13T08:15:01.893Z,25.01
2023-02-13T08:17:28.615Z,26.36
2023-02-13T08:19:55.341Z,22.92
2023-02-13T08:22:22.801Z,23.31
2023-02-13T08:24:49.727Z,23.31
2023-02-13T08:27:16.685Z,23.27
2023-02-13T08:29:43.476Z,23.24
2023-02-13T08:32:10.357Z,22.45
2023-02-13T08:34:37.154Z,24.39
2023-02-13T08:37:04.375Z,24.07
2023-02-13T08:39:31.181Z,24.34
2023-02-13T08:41:57.916Z,25.33
2023-02-13T08:44:24.654Z,26.73
2023-02-13T08:46:51.403Z,25.03
2023-02-13T08:49:18.459Z,24.03
2023-02-13T08:51:45.212Z,23.78
2023-02-13T08:54:12.245Z,24.24
2023-02-13T08:56:39.382Z,24.39
2023-02-13T08:59:06.397Z,24.40
2023-02-13T09:01:33.187Z,23.68
2023-02-13T09:04:00.377Z,24.90
2023-02-13T09:06:27.773Z,24.27
2023-02-13T09:08:55.357Z,24.02
2023-02-13T09:11:23.534Z,24.30
2023-02-13T09:13:54.269Z,23.23
2023-02-13T09:16:21.473Z,23.90
2023-02-13T09:18:49.053Z,25.82
2023-02-13T09:21:17.085Z,26.55
2023-02-13T09:23:44.007Z,26.45
2023-02-13T09:26:12.982Z,25.16
2023-02-13T09:28:41.003Z,24.58
2023-02-13T09:31:16.663Z,23.79
2023-02-13T09:33:45.479Z,27.55
2023-02-13T09:36:16.593Z,25.27
2023-02-13T09:38:44.241Z,23.62
2023-02-13T09:41:23.384Z,25.66
2023-02-13T09:43:55.192Z,24.86
2023-02-13T09:46:29.347Z,24.57
2023-02-13T09:48:59.158Z,24.68
2023-02-13T09:51:27.843Z,25.93
2023-02-13T09:53:57.961Z,25.00
2023-02-13T09:56:52.737Z,26.64
2023-02-13T09:59:22.831Z,24.49
2023-02-13T10:01:53.796Z,26.46
2023-02-13T10:04:26.395Z,26.80
2023-02-13T10:07:47.740Z,29.12
2023-02-13T10:10:32.575Z,27.09
2023-02-13T10:13:23.798Z,26.80
2023-02-13T10:15:50.951Z,25.88
2023-02-13T10:18:32.368Z,23.76
2023-02-13T10:21:02.693Z,24.08
2023-02-13T10:23:40.651Z,24.13
2023-02-13T10:26:22.675Z,25.55
2023-02-13T10:29:41.210Z,23.83
2023-02-13T10:32:13.798Z,26.69
2023-02-13T10:34:46.101Z,25.09
2023-02-13T10:37:18.845Z,23.58
2023-02-13T10:39:49.397Z,29.22
2023-02-13T10:42:26.389Z,26.00
2023-02-13T10:45:18.029Z,24.82
2023-02-13T10:48:26.026Z,23.58
2023-02-13T10:51:10.171Z,27.31
2023-02-13T10:54:24.599Z,30.57
2023-02-13T10:56:59.918Z,24.50
2023-02-13T11:00:17.473Z,23.50
2023-02-13T11:02:44.888Z,24.58
2023-02-13T11:05:24.287Z,25.48
2023-02-13T11:07:51.724Z,26.54
2023-02-13T11:10:23.597Z,25.45
2023-02-13T11:12:51.691Z,23.66
2023-02-13T11:15:30.962Z,22.91
2023-02-13T11:18:01.293Z,24.10
2023-02-13T11:20:37.964Z,25.05
2023-02-13T11:23:29.663Z,23.75
2023-02-13T11:26:04.213Z,24.55
2023-02-13T11:28:37.870Z,24.59
2023-02-13T11:31:26.841Z,25.06
2023-02-13T11:33:53.806Z,24.40
2023-02-13T11:36:30.342Z,25.09
2023-02-13T11:38:59.816Z,24.21
2023-02-13T11:41:26.973Z,23.60
2023-02-13T11:44:01.262Z,24.68
2023-02-13T11:46:46.174Z,26.74
2023-02-13T11:49:24.754Z,26.46
2023-02-13T11:51:58.578Z,25.49
2023-02-13T11:54:41.193Z,31.36
2023-02-13T11:57:26.021Z,22.99
2023-02-13T11:59:53.591Z,22.61
2023-02-13T12:02:31.744Z,24.80
2023-02-13T12:05:23.314Z,25.91
2023-02-13T12:07:51.020Z,23.63
2023-02-13T12:10:24.134Z,24.81
2023-02-13T12:12:53.926Z,26.61
2023-02-13T12:15:26.934Z,23.63
2023-02-13T12:18:08.330Z,23.20
2023-02-13T12:21:03.214Z,24.79
2023-02-13T12:24:04.549Z,23.42
2023-02-13T12:26:42.772Z,23.96
2023-02-13T12:29:27.722Z,24.95
2023-02-13T12:32:31.556Z,25.46
2023-02-13T12:35:16.774Z,26.35
2023-02-13T12:37:53.647Z,23.82
2023-02-13T12:40:28.593Z,25.63
2023-02-13T12:43:22.346Z,24.66
2023-02-13T12:46:01.337Z,23.87
2023-02-13T12:48:28.157Z,25.27
2023-02-13T12:51:06.382Z,25.86
2023-02-13T12:54:07.519Z,24.43
2023-02-13T12:57:02.388Z,26.84
2023-02-13T12:59:50.613Z,24.43
2023-02-13T13:02:52.563Z,26.68
2023-02-13T13:05:45.251Z,23.60
2023-02-13T13:08:25.486Z,25.82
2023-02-13T13:11:16.431Z,27.43
2023-02-13T13:14:03.667Z,26.49
2023-02-13T13:16:45.366Z,25.66
2023-02-13T13:19:50.512Z,22.73
2023-02-13T13:22:33.873Z,24.40
2023-02-13T13:25:20.356Z,23.02
2023-02-13T13:27:51.142Z,24.75
2023-02-13T13:30:25.132Z,23.02
2023-02-13T13:33:04.941Z,26.13
2023-02-13T13:35:33.574Z,23.23
2023-02-13T13:38:15.229Z,22.77
2023-02-13T13:40:57.386Z,23.62
2023-02-13T13:43:40.989Z,24.79
2023-02-13T13:46:08.124Z,23.40
2023-02-13T13:48:53.241Z,23.03
2023-02-13T13:51:20.696Z,22.31
2023-02-13T13:54:20.160Z,22.60
2023-02-13T13:56:53.117Z,22.37
2023-02-13T13:59:51.715Z,22.77
2023-02-13T14:02:18.697Z,23.31
2023-02-13T14:05:02.787Z,23.01
2023-02-13T14:07:38.574Z,24.35
2023-02-13T14:10:06.613Z,24.09
2023-02-13T14:12:33.266Z,24.51
2023-02-13T14:15:01.816Z,23.66
2023-02-13T14:17:46.777Z,22.74
2023-02-13T14:20:41.322Z,23.72
2023-02-13T14:23:17.594Z,22.18
2023-02-13T14:25:44.970Z,22.69
2023-02-13T14:28:23.382Z,21.28
2023-02-13T14:30:55.786Z,21.82
2023-02-13T14:33:30.145Z,25.03
2023-02-13T14:36:08.550Z,24.77
2023-02-13T14:38:36.549Z,23.38
2023-02-13T14:41:04.164Z,23.15
2023-02-13T14:43:35.878Z,24.61
2023-02-13T14:46:20.874Z,22.65
2023-02-13T14:49:06.959Z,24.14
2023-02-13T14:51:41.416Z,24.25
2023-02-13T14:54:49.632Z,25.61
2023-02-13T14:57:29.823Z,24.92
2023-02-13T15:00:01.323Z,24.83
2023-02-13T15:02:33.556Z,23.89
2023-02-13T15:05:04.829Z,23.23
2023-02-13T15:07:36.693Z,25.82
2023-02-13T15:10:32.181Z,26.34
2023-02-13T15:13:00.610Z,30.48
2023-02-13T15:15:29.891Z,24.92
2023-02-13T15:18:37.208Z,29.64
2023-02-13T15:21:04.653Z,25.95
2023-02-13T15:23:33.903Z,25.33
2023-02-13T15:26:06.268Z,27.02
2023-02-13T15:28:35.032Z,29.45
2023-02-13T15:31:07.359Z,28.53
2023-02-13T15:33:48.873Z,25.87
2023-02-13T15:36:22.468Z,25.97
2023-02-13T15:38:49.223Z,27.16
2023-02-13T15:41:28.305Z,27.01
2023-02-13T15:44:00.190Z,28.26
2023-02-13T15:46:38.795Z,25.55
2023-02-13T15:49:09.402Z,27.65
2023-02-13T15:51:36.694Z,27.96
2023-02-13T15:54:06.617Z,26.50
2023-02-13T15:56:34.185Z,25.47
2023-02-13T15:59:01.783Z,27.24
2023-02-13T16:01:29.312Z,26.84
2023-02-13T16:04:09.427Z,29.93
2023-02-13T16:06:36.640Z,29.17
2023-02-13T16:09:04.512Z,27.55
2023-02-13T16:11:45.226Z,28.38
2023-02-13T16:14:24.808Z,26.41
2023-02-13T16:17:16.984Z,25.93
2023-02-13T16:20:06.823Z,26.95
2023-02-13T16:23:02.779Z,25.52
2023-02-13T16:25:32.177Z,29.51
2023-02-13T16:28:01.579Z,26.08
2023-02-13T16:30:33.363Z,25.65
2023-02-13T16:33:15.629Z,24.60
2023-02-13T16:35:51.395Z,28.25
2023-02-13T16:38:31.844Z,26.39
2023-02-13T16:41:28.894Z,25.63
2023-02-13T16:44:00.103Z,25.48
2023-02-13T16:46:26.793Z,24.94
2023-02-13T16:48:56.621Z,24.36
2023-02-13T16:51:36.639Z,26.60
2023-02-13T16:54:19.849Z,29.47
2023-02-13T16:56:49.962Z,28.39
2023-02-13T16:59:38.227Z,27.21
2023-02-13T17:02:25.385Z,26.34
2023-02-13T17:05:11.854Z,25.26
2023-02-13T17:07:51.148Z,24.75
2023-02-13T17:10:27.332Z,26.43
2023-02-13T17:12:56.668Z,28.50
2023-02-13T17:15:25.555Z,25.59
2023-02-13T17:17:53.834Z,25.67
2023-02-13T17:20:32.636Z,26.59
2023-02-13T17:23:02.556Z,27.38
2023-02-13T17:25:35.425Z,28.22
2023-02-13T17:28:07.564Z,28.91
2023-02-13T17:30:34.467Z,29.85
2023-02-13T17:33:12.077Z,25.86
2023-02-13T17:35:38.956Z,28.23
2023-02-13T17:38:07.568Z,26.41
2023-02-13T17:40:34.278Z,28.95
2023-02-13T17:43:01.480Z,26.33
2023-02-13T17:45:30.713Z,28.77
2023-02-13T17:47:58.293Z,27.60
2023-02-13T17:50:30.517Z,29.25
2023-02-13T17:52:58.365Z,25.49
2023-02-13T17:55:28.727Z,24.91
2023-02-13T17:57:57.128Z,25.38
2023-02-13T18:00:29.534Z,25.49
2023-02-13T18:02:58.444Z,23.97
2023-02-13T18:05:25.936Z,24.55
2023-02-13T18:07:52.697Z,28.37
2023-02-13T18:10:25.924Z,24.67
2023-02-13T18:12:54.506Z,25.15
2023-02-13T18:15:21.865Z,26.83
2023-02-13T18:17:49.128Z,25.02
2023-02-13T18:20:18.956Z,23.83
2023-02-13T18:22:45.748Z,27.46
2023-02-13T18:25:13.706Z,25.71
2023-02-13T18:27:40.431Z,24.19
2023-02-13T18:30:09.247Z,26.27
2023-02-13T18:32:36.185Z,26.98
2023-02-13T18:35:03.329Z,27.37
2023-02-13T18:37:30.657Z,26.94
2023-02-13T18:39:57.550Z,27.80
2023-02-13T18:42:24.426Z,30.30
2023-02-13T18:44:51.463Z,29.75
2023-02-13T18:47:18.849Z,27.73
2023-02-13T18:49:46.501Z,28.50
2023-02-13T18:52:13.426Z,26.97
2023-02-13T18:54:40.666Z,27.39
2023-02-13T18:57:08.593Z,29.91
2023-02-13T18:59:35.313Z,29.35
2023-02-13T19:02:04.116Z,29.70
2023-02-13T19:04:31.474Z,27.13
2023-02-13T19:06:58.370Z,28.85
2023-02-13T19:09:25.745Z,29.46
2023-02-13T19:11:53.129Z,29.64
2023-02-13T19:14:19.948Z,31.02
2023-02-13T19:16:46.671Z,30.70
2023-02-13T19:19:13.561Z,28.56
2023-02-13T19:21:41.282Z,30.15
2023-02-13T19:24:09.713Z,31.86
2023-02-13T19:26:36.677Z,30.78
2023-02-13T19:29:04.498Z,30.00
2023-02-13T19:31:32.835Z,29.77
2023-02-13T19:34:00.864Z,28.12
2023-02-13T19:36:31.057Z,31.44
2023-02-13T19:39:02.742Z,30.39
2023-02-13T19:41:31.307Z,28.80
2023-02-13T19:43:58.575Z,30.73
2023-02-13T19:46:28.118Z,26.65
2023-02-13T19:48:55.524Z,29.52
2023-02-13T19:51:25.068Z,27.62
2023-02-13T19:53:58.192Z,29.15
2023-02-13T19:56:27.247Z,26.80
2023-02-13T19:58:54.084Z,28.36
2023-02-13T20:01:23.124Z,34.00
2023-02-13T20:03:50.976Z,31.53
2023-02-13T20:06:38.904Z,28.53
2023-02-13T20:09:09.178Z,28.87
2023-02-13T20:11:36.416Z,31.82
2023-02-13T20:14:05.446Z,28.90
2023-02-13T20:16:35.526Z,25.67
2023-02-13T20:19:07.119Z,27.32
2023-02-13T20:21:34.973Z,29.32
2023-02-13T20:24:03.244Z,26.07
2023-02-13T20:26:31.254Z,29.24
2023-02-13T20:29:00.035Z,27.86
2023-02-13T20:31:27.792Z,27.02
2023-02-13T20:33:55.089Z,27.77
2023-02-13T20:36:24.648Z,27.25
2023-02-13T20:38:54.839Z,29.76
2023-02-13T20:41:24.300Z,26.87
2023-02-13T20:43:51.364Z,25.46
2023-02-13T20:46:18.948Z,27.28
2023-02-13T20:48:47.575Z,25.49
2023-02-13T20:51:16.993Z,26.52
2023-02-13T20:53:45.572Z,25.83
2023-02-13T20:56:18.130Z,25.82
2023-02-13T20:58:46.830Z,27.34
2023-02-13T21:01:37.501Z,28.04
2023-02-13T21:04:04.269Z,27.47
2023-02-13T21:06:34.605Z,25.03
2023-02-13T21:09:02.713Z,24.37
2023-02-13T21:11:30.735Z,25.20
2023-02-13T21:13:58.048Z,28.59
2023-02-13T21:16:26.737Z,27.28
2023-02-13T21:18:56.237Z,25.61
2023-02-13T21:21:25.199Z,29.09
2023-02-13T21:23:56.443Z,26.51
2023-02-13T21:26:24.484Z,25.43
2023-02-13T21:28:51.886Z,24.28
2023-02-13T21:31:24.005Z,26.75
2023-02-13T21:33:52.424Z,30.04
2023-02-13T21:36:19.848Z,29.12
2023-02-13T21:38:46.995Z,26.07
2023-02-13T21:41:16.373Z,29.87
2023-02-13T21:43:46.825Z,30.28
2023-02-13T21:46:15.629Z,27.08
2023-02-13T21:48:42.717Z,24.49
2023-02-13T21:51:17.697Z,25.50
2023-02-13T21:53:45.903Z,27.37
2023-02-13T21:56:18.396Z,27.39
2023-02-13T21:58:46.190Z,27.54
2023-02-13T22:01:26.837Z,27.02
2023-02-13T22:04:01.418Z,24.82
2023-02-13T22:06:33.482Z,28.43
2023-02-13T22:09:05.870Z,25.11
2023-02-13T22:11:33.490Z,26.51
2023-02-13T22:14:02.683Z,26.64
2023-02-13T22:16:32.288Z,24.88
2023-02-13T22:18:59.927Z,26.04
2023-02-13T22:21:29.327Z,24.86
2023-02-13T22:23:56.064Z,28.30
2023-02-13T22:26:24.565Z,26.03
2023-02-13T22:28:52.221Z,25.13
2023-02-13T22:31:19.290Z,28.25
2023-02-13T22:33:52.356Z,26.35
2023-02-13T22:36:25.968Z,24.02
2023-02-13T22:38:53.260Z,26.30
2023-02-13T22:41:23.273Z,24.37
2023-02-13T22:43:51.241Z,23.20
2023-02-13T22:46:25.360Z,24.27
2023-02-13T22:48:53.686Z,28.61
2023-02-13T22:51:24.504Z,26.15
2023-02-13T22:53:55.719Z,26.59
2023-02-13T22:56:23.642Z,27.17
2023-02-13T22:58:50.531Z,28.87
2023-02-13T23:01:20.220Z,26.59
2023-02-13T23:03:47.661Z,25.55
2023-02-13T23:06:15.701Z,25.86
2023-02-13T23:08:43.243Z,26.91
2023-02-13T23:11:35.511Z,28.86
2023-02-13T23:14:02.901Z,25.62
2023-02-13T23:16:49.417Z,24.68
2023-02-13T23:19:17.013Z,24.03
2023-02-13T23:21:44.090Z,28.00
2023-02-13T23:24:10.959Z,25.24
2023-02-13T23:26:37.657Z,26.75
2023-02-13T23:29:04.601Z,26.16
2023-02-13T23:31:31.781Z,24.63
2023-02-13T23:33:58.593Z,23.87
2023-02-13T23:36:25.745Z,28.00
2023-02-13T23:38:52.431Z,28.14
2023-02-13T23:41:19.160Z,25.96
2023-02-13T23:43:45.864Z,25.57
2023-02-13T23:46:12.669Z,31.65
2023-02-13T23:48:39.449Z,25.48
2023-02-13T23:51:06.228Z,24.34
2023-02-13T23:53:37.157Z,24.39
2023-02-13T23:56:05.054Z,25.16
2023-02-13T23:58:32.095Z,25.28
